sensor_id;sensor_type;location;lat;lon;timestamp;pressure;altitude;pressure_sealevel;temperature;humidity
38058;BME280;23862;51.972;4.618;2022-08-21T00:00:43;-25527.44;;;16.36;100.00
38058;BME280;23862;51.972;4.618;2022-08-21T00:03:09;-25527.00;;;16.34;100.00
38058;BME280;23862;51.972;4.618;2022-08-21T00:05:37;-25526.56;;;16.32;100.00
38058;BME280;23862;51.972;4.618;2022-08-21T00:08:03;-25527.44;;;16.36;100.00
38058;BME280;23862;51.972;4.618;2022-08-21T00:10:28;-25526.72;;;16.33;100.00
38058;BME280;23862;51.972;4.618;2022-08-21T00:12:53;-25525.28;;;16.28;100.00
38058;BME280;23862;51.972;4.618;2022-08-21T00:15:22;-25523.25;;;16.21;100.00
38058;BME280;23862;51.972;4.618;2022-08-21T00:17:48;-25521.78;;;16.15;100.00
38058;BME280;23862;51.972;4.618;2022-08-21T00:20:14;-25519.47;;;16.07;100.00
38058;BME280;23862;51.972;4.618;2022-08-21T00:22:40;-25519.16;;;16.06;100.00
38058;BME280;23862;51.972;4.618;2022-08-21T00:25:06;-25519.31;;;16.07;100.00
38058;BME280;23862;51.972;4.618;2022-08-21T00:27:31;-25518.00;;;16.02;100.00
38058;BME280;23862;51.972;4.618;2022-08-21T00:29:57;-25516.25;;;15.96;100.00
38058;BME280;23862;51.972;4.618;2022-08-21T00:32:23;-25515.97;;;15.95;100.00
38058;BME280;23862;51.972;4.618;2022-08-21T00:34:51;-25518.88;;;16.05;100.00
38058;BME280;23862;51.972;4.618;2022-08-21T00:37:17;-25514.81;;;15.91;100.00
38058;BME280;23862;51.972;4.618;2022-08-21T00:39:43;-25513.50;;;15.86;100.00
38058;BME280;23862;51.972;4.618;2022-08-21T00:42:08;-25513.50;;;15.86;100.00
38058;BME280;23862;51.972;4.618;2022-08-21T00:44:34;-25512.78;;;15.84;100.00
38058;BME280;23862;51.972;4.618;2022-08-21T00:46:59;-25512.19;;;15.82;100.00
38058;BME280;23862;51.972;4.618;2022-08-21T00:49:25;-25512.06;;;15.81;100.00
38058;BME280;23862;51.972;4.618;2022-08-21T00:51:52;-25511.03;;;15.77;100.00
38058;BME280;23862;51.972;4.618;2022-08-21T00:54:19;-25509.44;;;15.72;100.00
38058;BME280;23862;51.972;4.618;2022-08-21T00:56:46;-25510.31;;;15.75;100.00
38058;BME280;23862;51.972;4.618;2022-08-21T00:59:13;-25510.59;;;15.76;100.00
38058;BME280;23862;51.972;4.618;2022-08-21T01:01:38;-25510.44;;;15.75;100.00
38058;BME280;23862;51.972;4.618;2022-08-21T01:04:03;-25511.75;;;15.80;100.00
38058;BME280;23862;51.972;4.618;2022-08-21T01:06:29;-25513.06;;;15.85;100.00
38058;BME280;23862;51.972;4.618;2022-08-21T01:08:55;-25513.78;;;15.87;100.00
38058;BME280;23862;51.972;4.618;2022-08-21T01:11:20;-25514.53;;;15.90;100.00
38058;BME280;23862;51.972;4.618;2022-08-21T01:13:45;-25514.38;;;15.89;100.00
38058;BME280;23862;51.972;4.618;2022-08-21T01:16:12;-25515.53;;;15.93;100.00
38058;BME280;23862;51.972;4.618;2022-08-21T01:18:38;-25515.69;;;15.94;100.00
38058;BME280;23862;51.972;4.618;2022-08-21T01:23:33;-25514.22;;;15.89;100.00
38058;BME280;23862;51.972;4.618;2022-08-21T01:25:59;-25513.66;;;15.87;100.00
38058;BME280;23862;51.972;4.618;2022-08-21T01:28:25;-25513.66;;;15.87;100.00
38058;BME280;23862;51.972;4.618;2022-08-21T01:30:51;-25513.06;;;15.85;100.00
38058;BME280;23862;51.972;4.618;2022-08-21T01:33:19;-25512.19;;;15.82;100.00
38058;BME280;23862;51.972;4.618;2022-08-21T01:35:46;-25511.91;;;15.81;100.00
38058;BME280;23862;51.972;4.618;2022-08-21T01:38:12;-25512.19;;;15.82;100.00
38058;BME280;23862;51.972;4.618;2022-08-21T01:40:37;-25511.75;;;15.80;100.00
38058;BME280;23862;51.972;4.618;2022-08-21T01:43:02;-25512.19;;;15.82;100.00
38058;BME280;23862;51.972;4.618;2022-08-21T01:45:28;-25511.91;;;15.81;100.00
38058;BME280;23862;51.972;4.618;2022-08-21T01:47:53;-25512.50;;;15.83;100.00
38058;BME280;23862;51.972;4.618;2022-08-21T01:50:20;-25512.63;;;15.83;100.00
38058;BME280;23862;51.972;4.618;2022-08-21T01:52:46;-25512.06;;;15.81;100.00
38058;BME280;23862;51.972;4.618;2022-08-21T01:55:11;-25510.59;;;15.76;100.00
38058;BME280;23862;51.972;4.618;2022-08-21T01:57:37;-25510.59;;;15.76;100.00
38058;BME280;23862;51.972;4.618;2022-08-21T02:00:07;-25509.13;;;15.71;100.00
38058;BME280;23862;51.972;4.618;2022-08-21T02:02:33;-25508.84;;;15.70;100.00
38058;BME280;23862;51.972;4.618;2022-08-21T02:04:59;-25506.66;;;15.62;100.00
38058;BME280;23862;51.972;4.618;2022-08-21T02:07:24;-25506.81;;;15.62;100.00
38058;BME280;23862;51.972;4.618;2022-08-21T02:09:49;-25505.34;;;15.57;100.00
38058;BME280;23862;51.972;4.618;2022-08-21T02:12:15;-25505.78;;;15.59;100.00
38058;BME280;23862;51.972;4.618;2022-08-21T02:14:40;-25505.78;;;15.59;100.00
38058;BME280;23862;51.972;4.618;2022-08-21T02:17:05;-25504.50;;;15.54;100.00
38058;BME280;23862;51.972;4.618;2022-08-21T02:19:30;-25504.06;;;15.53;100.00
38058;BME280;23862;51.972;4.618;2022-08-21T02:21:56;-25503.03;;;15.49;100.00
38058;BME280;23862;51.972;4.618;2022-08-21T02:24:21;-25501.13;;;15.42;100.00
38058;BME280;23862;51.972;4.618;2022-08-21T02:26:46;-25500.25;;;15.39;100.00
38058;BME280;23862;51.972;4.618;2022-08-21T02:29:12;-25500.25;;;15.39;100.00
38058;BME280;23862;51.972;4.618;2022-08-21T02:31:37;-25499.53;;;15.37;100.00
38058;BME280;23862;51.972;4.618;2022-08-21T02:34:02;-25499.25;;;15.36;100.00
38058;BME280;23862;51.972;4.618;2022-08-21T02:36:28;-25499.41;;;15.36;100.00
38058;BME280;23862;51.972;4.618;2022-08-21T02:38:53;-25498.66;;;15.34;100.00
38058;BME280;23862;51.972;4.618;2022-08-21T02:41:19;-25497.50;;;15.30;100.00
38058;BME280;23862;51.972;4.618;2022-08-21T02:43:46;-25495.19;;;15.21;100.00
38058;BME280;23862;51.972;4.618;2022-08-21T02:46:12;-25495.31;;;15.22;100.00
38058;BME280;23862;51.972;4.618;2022-08-21T02:48:38;-25495.91;;;15.24;100.00
38058;BME280;23862;51.972;4.618;2022-08-21T02:51:04;-25495.03;;;15.21;100.00
38058;BME280;23862;51.972;4.618;2022-08-21T02:53:30;-25495.19;;;15.21;100.00
38058;BME280;23862;51.972;4.618;2022-08-21T02:55:58;-25494.31;;;15.18;100.00
38058;BME280;23862;51.972;4.618;2022-08-21T02:58:25;-25492.25;;;15.11;100.00
38058;BME280;23862;51.972;4.618;2022-08-21T03:00:51;-25490.81;;;15.06;100.00
38058;BME280;23862;51.972;4.618;2022-08-21T03:03:16;-25492.56;;;15.12;100.00
38058;BME280;23862;51.972;4.618;2022-08-21T03:05:42;-25491.69;;;15.09;100.00
38058;BME280;23862;51.972;4.618;2022-08-21T03:08:08;-25490.66;;;15.05;100.00
38058;BME280;23862;51.972;4.618;2022-08-21T03:10:37;-25490.09;;;15.03;100.00
38058;BME280;23862;51.972;4.618;2022-08-21T03:13:03;-25491.09;;;15.07;100.00
38058;BME280;23862;51.972;4.618;2022-08-21T03:15:28;-25489.50;;;15.01;100.00
38058;BME280;23862;51.972;4.618;2022-08-21T03:17:54;-25487.75;;;14.95;100.00
38058;BME280;23862;51.972;4.618;2022-08-21T03:20:20;-25486.88;;;14.92;100.00
38058;BME280;23862;51.972;4.618;2022-08-21T03:22:48;-25486.59;;;14.91;100.00
38058;BME280;23862;51.972;4.618;2022-08-21T03:25:14;-25486.59;;;14.91;100.00
38058;BME280;23862;51.972;4.618;2022-08-21T03:27:39;-25485.44;;;14.87;100.00
38058;BME280;23862;51.972;4.618;2022-08-21T03:30:06;-25484.84;;;14.85;100.00
38058;BME280;23862;51.972;4.618;2022-08-21T03:32:31;-25484.13;;;14.82;100.00
38058;BME280;23862;51.972;4.618;2022-08-21T03:34:57;-25485.13;;;14.86;100.00
38058;BME280;23862;51.972;4.618;2022-08-21T03:37:22;-25485.00;;;14.85;100.00
38058;BME280;23862;51.972;4.618;2022-08-21T03:39:48;-25485.88;;;14.88;100.00
38058;BME280;23862;51.972;4.618;2022-08-21T03:42:15;-25487.47;;;14.94;100.00
38058;BME280;23862;51.972;4.618;2022-08-21T03:44:40;-25486.59;;;14.91;100.00
38058;BME280;23862;51.972;4.618;2022-08-21T03:47:06;-25487.31;;;14.94;100.00
38058;BME280;23862;51.972;4.618;2022-08-21T03:49:31;-25487.75;;;14.95;100.00
38058;BME280;23862;51.972;4.618;2022-08-21T03:51:57;-25488.34;;;14.97;100.00
38058;BME280;23862;51.972;4.618;2022-08-21T03:54:22;-25488.91;;;14.99;100.00
38058;BME280;23862;51.972;4.618;2022-08-21T03:56:47;-25488.91;;;14.99;100.00
38058;BME280;23862;51.972;4.618;2022-08-21T03:59:13;-25489.66;;;15.02;100.00
38058;BME280;23862;51.972;4.618;2022-08-21T04:01:38;-25490.38;;;15.04;100.00
38058;BME280;23862;51.972;4.618;2022-08-21T04:04:04;-25490.81;;;15.06;100.00
38058;BME280;23862;51.972;4.618;2022-08-21T04:06:29;-25491.69;;;15.09;100.00
38058;BME280;23862;51.972;4.618;2022-08-21T04:08:55;-25491.81;;;15.10;100.00
38058;BME280;23862;51.972;4.618;2022-08-21T04:11:20;-25492.13;;;15.11;100.00
38058;BME280;23862;51.972;4.618;2022-08-21T04:13:46;-25493.00;;;15.14;100.00
38058;BME280;23862;51.972;4.618;2022-08-21T04:16:12;-25492.13;;;15.11;100.00
38058;BME280;23862;51.972;4.618;2022-08-21T04:18:37;-25492.13;;;15.11;100.00
38058;BME280;23862;51.972;4.618;2022-08-21T04:21:03;-25492.56;;;15.12;100.00
38058;BME280;23862;51.972;4.618;2022-08-21T04:23:28;-25492.41;;;15.12;100.00
38058;BME280;23862;51.972;4.618;2022-08-21T04:25:54;-25490.97;;;15.06;100.00
38058;BME280;23862;51.972;4.618;2022-08-21T04:28:21;-25492.13;;;15.11;100.00
38058;BME280;23862;51.972;4.618;2022-08-21T04:30:55;-25491.53;;;15.08;100.00
38058;BME280;23862;51.972;4.618;2022-08-21T04:33:21;-25491.09;;;15.07;100.00
38058;BME280;23862;51.972;4.618;2022-08-21T04:35:46;-25491.97;;;15.10;100.00
38058;BME280;23862;51.972;4.618;2022-08-21T04:38:12;-25493.72;;;15.16;100.00
38058;BME280;23862;51.972;4.618;2022-08-21T04:40:37;-25493.72;;;15.16;100.00
38058;BME280;23862;51.972;4.618;2022-08-21T04:43:04;-25493.56;;;15.16;100.00
38058;BME280;23862;51.972;4.618;2022-08-21T04:45:31;-25492.41;;;15.12;100.00
38058;BME280;23862;51.972;4.618;2022-08-21T04:47:57;-25493.44;;;15.15;100.00
38058;BME280;23862;51.972;4.618;2022-08-21T04:50:57;-25494.59;;;15.19;100.00
38058;BME280;23862;51.972;4.618;2022-08-21T04:53:16;-25495.47;;;15.22;100.00
38058;BME280;23862;51.972;4.618;2022-08-21T04:55:43;-25497.06;;;15.28;100.00
38058;BME280;23862;51.972;4.618;2022-08-21T04:58:09;-25498.22;;;15.32;100.00
38058;BME280;23862;51.972;4.618;2022-08-21T05:00:36;-25500.84;;;15.41;100.00
38058;BME280;23862;51.972;4.618;2022-08-21T05:03:02;-25506.38;;;15.61;100.00
38058;BME280;23862;51.972;4.618;2022-08-21T05:05:29;-25519.03;;;16.06;100.00
38058;BME280;23862;51.972;4.618;2022-08-21T05:07:54;-25528.31;;;16.39;100.00
38058;BME280;23862;51.972;4.618;2022-08-21T05:10:21;-25548.63;;;17.11;100.00
38058;BME280;23862;51.972;4.618;2022-08-21T05:12:46;-25560.97;;;17.54;100.00
38058;BME280;23862;51.972;4.618;2022-08-21T05:15:12;-25565.31;;;17.70;100.00
38058;BME280;23862;51.972;4.618;2022-08-21T05:17:38;-25575.44;;;18.06;100.00
38058;BME280;23862;51.972;4.618;2022-08-21T05:20:04;-25590.22;;;18.58;100.00
38058;BME280;23862;51.972;4.618;2022-08-21T05:22:30;-25593.38;;;18.70;100.00
38058;BME280;23862;51.972;4.618;2022-08-21T05:24:56;-25591.34;;;18.62;100.00
38058;BME280;23862;51.972;4.618;2022-08-21T05:27:21;-24257.25;;;18.25;100.00
38058;BME280;23862;51.972;4.618;2022-08-21T05:29:47;-22271.28;;;18.13;100.00
38058;BME280;23862;51.972;4.618;2022-08-21T05:32:12;-21933.53;;;17.81;100.00
38058;BME280;23862;51.972;4.618;2022-08-21T05:34:38;-23585.06;;;17.80;100.00
38058;BME280;23862;51.972;4.618;2022-08-21T05:37:03;-25234.16;;;17.73;100.00
38058;BME280;23862;51.972;4.618;2022-08-21T05:39:29;-25581.22;;;18.26;100.00
38058;BME280;23862;51.972;4.618;2022-08-21T05:41:54;-24279.91;;;19.12;100.00
38058;BME280;23862;51.972;4.618;2022-08-21T05:44:19;-16343.97;;;20.17;100.00
38058;BME280;23862;51.972;4.618;2022-08-21T05:46:44;-2360.28;;;21.12;100.00
38058;BME280;23862;51.972;4.618;2022-08-21T05:49:10;22427.44;;;21.18;100.00
38058;BME280;23862;51.972;4.618;2022-08-21T05:51:35;46370.75;;;21.32;100.00
38058;BME280;23862;51.972;4.618;2022-08-21T05:54:01;74538.31;;;21.32;100.00
38058;BME280;23862;51.972;4.618;2022-08-21T05:56:26;97149.44;;;21.74;100.00
38058;BME280;23862;51.972;4.618;2022-08-21T05:58:51;102862.06;;;21.07;100.00
38058;BME280;23862;51.972;4.618;2022-08-21T06:01:16;81889.16;;;20.27;100.00
38058;BME280;23862;51.972;4.618;2022-08-21T06:03:42;59806.53;;;20.25;100.00
38058;BME280;23862;51.972;4.618;2022-08-21T06:06:07;53693.25;;;20.04;100.00
38058;BME280;23862;51.972;4.618;2022-08-21T06:08:33;44894.47;;;19.83;100.00
38058;BME280;23862;51.972;4.618;2022-08-21T06:10:59;37163.19;;;20.08;100.00
38058;BME280;23862;51.972;4.618;2022-08-21T06:13:25;35151.38;;;20.20;100.00
38058;BME280;23862;51.972;4.618;2022-08-21T06:15:59;36129.59;;;19.74;100.00
38058;BME280;23862;51.972;4.618;2022-08-21T06:18:25;27720.94;;;19.63;100.00
38058;BME280;23862;51.972;4.618;2022-08-21T06:20:50;20316.72;;;19.04;100.00
38058;BME280;23862;51.972;4.618;2022-08-21T06:23:16;9960.72;;;19.27;100.00
38058;BME280;23862;51.972;4.618;2022-08-21T06:25:41;5953.03;;;19.16;100.00
38058;BME280;23862;51.972;4.618;2022-08-21T06:28:07;2285.28;;;19.14;100.00
38058;BME280;23862;51.972;4.618;2022-08-21T06:30:34;-1044.66;;;19.22;100.00
38058;BME280;23862;51.972;4.618;2022-08-21T06:33:01;-2041.94;;;19.39;100.00
38058;BME280;23862;51.972;4.618;2022-08-21T06:35:27;-1708.47;;;19.44;100.00
38058;BME280;23862;51.972;4.618;2022-08-21T06:37:54;-3041.63;;;19.27;100.00
38058;BME280;23862;51.972;4.618;2022-08-21T06:40:19;-5038.50;;;19.18;100.00
38058;BME280;23862;51.972;4.618;2022-08-21T06:42:56;-7033.19;;;19.60;100.00
38058;BME280;23862;51.972;4.618;2022-08-21T06:45:23;-3370.19;;;19.89;100.00
38058;BME280;23862;51.972;4.618;2022-08-21T06:47:48;3979.59;;;20.65;100.00
38058;BME280;23862;51.972;4.618;2022-08-21T06:50:13;18716.28;;;20.78;100.00
38058;BME280;23862;51.972;4.618;2022-08-21T06:52:39;26770.31;;;20.67;100.00
38058;BME280;23862;51.972;4.618;2022-08-21T06:55:07;27099.38;;;20.54;100.00
38058;BME280;23862;51.972;4.618;2022-08-21T06:57:33;23717.91;;;20.09;100.00
38058;BME280;23862;51.972;4.618;2022-08-21T06:59:58;16684.38;;;20.28;100.00
38058;BME280;23862;51.972;4.618;2022-08-21T07:02:24;13667.00;;;20.19;100.00
38058;BME280;23862;51.972;4.618;2022-08-21T07:04:50;10663.38;;;20.47;100.00
38058;BME280;23862;51.972;4.618;2022-08-21T07:07:16;13680.38;;;20.59;100.00
38058;BME280;23862;51.972;4.618;2022-08-21T07:09:43;14354.66;;;20.71;100.00
38058;BME280;23862;51.972;4.618;2022-08-21T07:12:08;20103.22;;;21.80;100.00
38058;BME280;23862;51.972;4.618;2022-08-21T07:14:36;50535.97;;;22.46;100.00
38058;BME280;23862;51.972;4.618;2022-08-21T07:17:02;99769.50;;;23.03;100.00
38058;BME280;23862;51.972;4.618;2022-08-21T07:19:27;148648.53;;;23.59;100.00
38058;BME280;23862;51.972;4.618;2022-08-21T07:21:54;148699.88;;;23.80;100.00
38058;BME280;23862;51.972;4.618;2022-08-21T07:24:22;148832.19;;;24.33;100.00
38058;BME280;23862;51.972;4.618;2022-08-21T07:26:47;148802.69;;;24.21;100.00
38058;BME280;23862;51.972;4.618;2022-08-21T07:29:12;148839.91;;;24.36;100.00
38058;BME280;23862;51.972;4.618;2022-08-21T07:31:38;149124.03;;;25.50;100.00
38058;BME280;23862;51.972;4.618;2022-08-21T07:34:04;149016.00;;;25.06;100.00
38058;BME280;23862;51.972;4.618;2022-08-21T07:36:30;149127.88;;;25.51;100.00
38058;BME280;23862;51.972;4.618;2022-08-21T07:38:56;149095.72;;;25.38;100.00
38058;BME280;23862;51.972;4.618;2022-08-21T07:41:22;149054.56;;;25.22;100.00
38058;BME280;23862;51.972;4.618;2022-08-21T07:43:49;149059.69;;;25.24;100.00
38058;BME280;23862;51.972;4.618;2022-08-21T07:46:15;148989.00;;;24.96;100.00
38058;BME280;23862;51.972;4.618;2022-08-21T07:48:40;149082.88;;;25.33;100.00
38058;BME280;23862;51.972;4.618;2022-08-21T07:51:07;149082.88;;;25.33;100.00
38058;BME280;23862;51.972;4.618;2022-08-21T07:53:33;149059.69;;;25.24;100.00
38058;BME280;23862;51.972;4.618;2022-08-21T07:55:59;149150.97;;;25.60;100.00
38058;BME280;23862;51.972;4.618;2022-08-21T07:58:24;149109.88;;;25.44;100.00
38058;BME280;23862;51.972;4.618;2022-08-21T08:00:49;149229.44;;;25.92;100.00
38058;BME280;23862;51.972;4.618;2022-08-21T08:03:16;149021.13;;;25.08;100.00
38058;BME280;23862;51.972;4.618;2022-08-21T08:05:41;149117.56;;;25.47;100.00
38058;BME280;23862;51.972;4.618;2022-08-21T08:08:07;149311.75;;;26.25;100.00
38058;BME280;23862;51.972;4.618;2022-08-21T08:10:32;149275.78;;;26.10;100.00
38058;BME280;23862;51.972;4.618;2022-08-21T08:12:58;149440.44;;;26.76;100.00
38058;BME280;23862;51.972;4.618;2022-08-21T08:15:24;149481.63;;;26.93;100.00
38058;BME280;23862;51.972;4.618;2022-08-21T08:17:50;149386.34;;;26.55;100.00
38058;BME280;23862;51.972;4.618;2022-08-21T08:20:16;149437.84;;;26.75;100.00
38058;BME280;23862;51.972;4.618;2022-08-21T08:22:44;149325.94;;;26.30;100.00
38058;BME280;23862;51.972;4.618;2022-08-21T08:25:11;149331.06;;;26.32;100.00
38058;BME280;23862;51.972;4.618;2022-08-21T08:27:37;149355.47;;;26.42;100.00
38058;BME280;23862;51.972;4.618;2022-08-21T08:30:04;149404.38;;;26.62;100.00
38058;BME280;23862;51.972;4.618;2022-08-21T08:32:32;149382.50;;;26.53;100.00
38058;BME280;23862;51.972;4.618;2022-08-21T08:34:57;149567.81;;;27.27;100.00
38058;BME280;23862;51.972;4.618;2022-08-21T08:37:22;149396.66;;;26.59;100.00
38058;BME280;23862;51.972;4.618;2022-08-21T08:39:47;149270.59;;;26.08;100.00
38058;BME280;23862;51.972;4.618;2022-08-21T08:42:16;149265.47;;;26.06;100.00
38058;BME280;23862;51.972;4.618;2022-08-21T08:44:44;149226.84;;;25.91;100.00
38058;BME280;23862;51.972;4.618;2022-08-21T08:47:11;149266.72;;;26.07;100.00
38058;BME280;23862;51.972;4.618;2022-08-21T08:52:28;149269.31;;;26.08;100.00
38058;BME280;23862;51.972;4.618;2022-08-21T08:55:12;149445.56;;;26.78;100.00
38058;BME280;23862;51.972;4.618;2022-08-21T08:57:39;149306.63;;;26.23;100.00
38058;BME280;23862;51.972;4.618;2022-08-21T09:00:08;149350.34;;;26.40;100.00
38058;BME280;23862;51.972;4.618;2022-08-21T09:02:41;149277.03;;;26.11;100.00
38058;BME280;23862;51.972;4.618;2022-08-21T09:05:07;149284.75;;;26.14;100.00
38058;BME280;23862;51.972;4.618;2022-08-21T09:10:21;149412.09;;;26.65;100.00
38058;BME280;23862;51.972;4.618;2022-08-21T09:13:07;149311.75;;;26.25;100.00
38058;BME280;23862;51.972;4.618;2022-08-21T09:15:46;149349.03;;;26.40;100.00
38058;BME280;23862;51.972;4.618;2022-08-21T09:21:06;149444.28;;;26.78;100.00
38058;BME280;23862;51.972;4.618;2022-08-21T09:26:19;149673.38;;;27.69;100.00
38058;BME280;23862;51.972;4.618;2022-08-21T09:28:45;149630.91;;;27.52;100.00
38058;BME280;23862;51.972;4.618;2022-08-21T09:33:47;149473.91;;;26.90;100.00
38058;BME280;23862;51.972;4.618;2022-08-21T09:36:12;149311.75;;;26.25;100.00
38058;BME280;23862;51.972;4.618;2022-08-21T09:38:51;149180.56;;;25.72;100.00
38058;BME280;23862;51.972;4.618;2022-08-21T09:41:16;149068.66;;;25.27;100.00
38058;BME280;23862;51.972;4.618;2022-08-21T09:43:54;149075.16;;;25.30;100.00
38058;BME280;23862;51.972;4.618;2022-08-21T09:46:20;149013.41;;;25.05;100.00
38058;BME280;23862;51.972;4.618;2022-08-21T09:48:47;149009.56;;;25.04;100.00
38058;BME280;23862;51.972;4.618;2022-08-21T09:51:20;149077.75;;;25.31;100.00
38058;BME280;23862;51.972;4.618;2022-08-21T09:53:55;149100.88;;;25.40;100.00
38058;BME280;23862;51.972;4.618;2022-08-21T09:56:29;149109.88;;;25.44;100.00
38058;BME280;23862;51.972;4.618;2022-08-21T09:59:15;149216.53;;;25.87;100.00
38058;BME280;23862;51.972;4.618;2022-08-21T10:01:44;149210.13;;;25.84;100.00
38058;BME280;23862;51.972;4.618;2022-08-21T10:04:11;148942.75;;;24.77;100.00
38058;BME280;23862;51.972;4.618;2022-08-21T10:06:37;148913.19;;;24.65;100.00
38058;BME280;23862;51.972;4.618;2022-08-21T10:09:03;148759.03;;;24.04;100.00
38058;BME280;23862;51.972;4.618;2022-08-21T10:11:29;148905.47;;;24.62;100.00
38058;BME280;23862;51.972;4.618;2022-08-21T10:14:10;148977.44;;;24.91;100.00
38058;BME280;23862;51.972;4.618;2022-08-21T10:19:07;149062.28;;;25.25;100.00
38058;BME280;23862;51.972;4.618;2022-08-21T10:24:22;148794.97;;;24.18;100.00
38058;BME280;23862;51.972;4.618;2022-08-21T10:29:22;148723.06;;;23.89;100.00
38058;BME280;23862;51.972;4.618;2022-08-21T10:32:04;148634.41;;;23.54;100.00
38058;BME280;23862;51.972;4.618;2022-08-21T10:37:11;148613.88;;;23.45;100.00
38058;BME280;23862;51.972;4.618;2022-08-21T10:42:23;148638.25;;;23.55;100.00
38058;BME280;23862;51.972;4.618;2022-08-21T10:47:55;148698.63;;;23.79;100.00
38058;BME280;23862;51.972;4.618;2022-08-21T10:50:31;148882.31;;;24.53;100.00
38058;BME280;23862;51.972;4.618;2022-08-21T10:55:31;148964.56;;;24.86;100.00
38058;BME280;23862;51.972;4.618;2022-08-21T10:57:59;148920.91;;;24.68;100.00
38058;BME280;23862;51.972;4.618;2022-08-21T11:00:46;148940.16;;;24.76;100.00
38058;BME280;23862;51.972;4.618;2022-08-21T11:03:26;148899.09;;;24.60;100.00
38058;BME280;23862;51.972;4.618;2022-08-21T11:05:55;149044.25;;;25.18;100.00
38058;BME280;23862;51.972;4.618;2022-08-21T11:08:27;149098.28;;;25.39;100.00
38058;BME280;23862;51.972;4.618;2022-08-21T11:11:06;149121.44;;;25.49;100.00
38058;BME280;23862;51.972;4.618;2022-08-21T11:19:04;149147.13;;;25.59;100.00
38058;BME280;23862;51.972;4.618;2022-08-21T11:21:39;149204.97;;;25.82;100.00
38058;BME280;23862;51.972;4.618;2022-08-21T11:26:45;148918.34;;;24.67;100.00
38058;BME280;23862;51.972;4.618;2022-08-21T11:29:13;148890.00;;;24.56;100.00
38058;BME280;23862;51.972;4.618;2022-08-21T11:31:48;148793.66;;;24.17;100.00
38058;BME280;23862;51.972;4.618;2022-08-21T11:36:56;148783.44;;;24.13;100.00
38058;BME280;23862;51.972;4.618;2022-08-21T11:42:55;148665.22;;;23.66;100.00
38058;BME280;23862;51.972;4.618;2022-08-21T11:47:45;148658.81;;;23.63;100.00
38058;BME280;23862;51.972;4.618;2022-08-21T11:50:18;148661.38;;;23.64;100.00
38058;BME280;23862;51.972;4.618;2022-08-21T11:55:47;148653.66;;;23.61;100.00
38058;BME280;23862;51.972;4.618;2022-08-21T11:58:16;148683.22;;;23.73;100.00
38058;BME280;23862;51.972;4.618;2022-08-21T12:03:17;148676.78;;;23.71;100.00
38058;BME280;23862;51.972;4.618;2022-08-21T12:05:55;148597.19;;;23.39;100.00
38058;BME280;23862;51.972;4.618;2022-08-21T12:13:33;148608.75;;;23.43;100.00
38058;BME280;23862;51.972;4.618;2022-08-21T12:16:09;148739.78;;;23.96;100.00
38058;BME280;23862;51.972;4.618;2022-08-21T12:18:36;148746.16;;;23.98;100.00
38058;BME280;23862;51.972;4.618;2022-08-21T12:21:04;148683.22;;;23.73;100.00
38058;BME280;23862;51.972;4.618;2022-08-21T12:23:43;148666.53;;;23.66;100.00
38058;BME280;23862;51.972;4.618;2022-08-21T12:28:34;148629.28;;;23.52;100.00
38058;BME280;23862;51.972;4.618;2022-08-21T12:30:59;148707.59;;;23.83;100.00
38058;BME280;23862;51.972;4.618;2022-08-21T12:33:38;148739.78;;;23.96;100.00
38058;BME280;23862;51.972;4.618;2022-08-21T12:36:09;148775.72;;;24.10;100.00
38058;BME280;23862;51.972;4.618;2022-08-21T12:38:49;148798.84;;;24.19;100.00
38058;BME280;23862;51.972;4.618;2022-08-21T12:41:17;148783.44;;;24.13;100.00
38058;BME280;23862;51.972;4.618;2022-08-21T12:43:57;148737.19;;;23.95;100.00
38058;BME280;23862;51.972;4.618;2022-08-21T12:46:37;148730.75;;;23.92;100.00
38058;BME280;23862;51.972;4.618;2022-08-21T12:49:14;148766.75;;;24.07;100.00
38058;BME280;23862;51.972;4.618;2022-08-21T12:51:52;148785.97;;;24.14;100.00
38058;BME280;23862;51.972;4.618;2022-08-21T12:54:30;148892.66;;;24.57;100.00
38058;BME280;23862;51.972;4.618;2022-08-21T12:56:56;148938.91;;;24.76;100.00
38058;BME280;23862;51.972;4.618;2022-08-21T12:59:23;148830.94;;;24.32;100.00
38058;BME280;23862;51.972;4.618;2022-08-21T13:01:49;148860.50;;;24.44;100.00
38058;BME280;23862;51.972;4.618;2022-08-21T13:07:04;148920.91;;;24.68;100.00
38058;BME280;23862;51.972;4.618;2022-08-21T13:09:30;148906.78;;;24.63;100.00
38058;BME280;23862;51.972;4.618;2022-08-21T13:11:56;148910.66;;;24.64;100.00
38058;BME280;23862;51.972;4.618;2022-08-21T13:14:38;148962.03;;;24.85;100.00
38058;BME280;23862;51.972;4.618;2022-08-21T13:17:05;148953.06;;;24.81;100.00
38058;BME280;23862;51.972;4.618;2022-08-21T13:19:30;148917.03;;;24.67;100.00
38058;BME280;23862;51.972;4.618;2022-08-21T13:21:56;148911.91;;;24.65;100.00
38058;BME280;23862;51.972;4.618;2022-08-21T13:24:26;148770.56;;;24.08;100.00
38058;BME280;23862;51.972;4.618;2022-08-21T13:26:52;148737.19;;;23.95;100.00
38058;BME280;23862;51.972;4.618;2022-08-21T13:29:19;148796.25;;;24.18;100.00
38058;BME280;23862;51.972;4.618;2022-08-21T13:31:53;148896.50;;;24.59;100.00
38058;BME280;23862;51.972;4.618;2022-08-21T13:34:24;148969.75;;;24.88;100.00
38058;BME280;23862;51.972;4.618;2022-08-21T13:37:04;148929.91;;;24.72;100.00
38058;BME280;23862;51.972;4.618;2022-08-21T13:39:30;148834.78;;;24.34;100.00
38058;BME280;23862;51.972;4.618;2022-08-21T13:41:57;148802.69;;;24.21;100.00
38058;BME280;23862;51.972;4.618;2022-08-21T13:44:35;148910.66;;;24.64;100.00
38058;BME280;23862;51.972;4.618;2022-08-21T13:47:01;148978.72;;;24.91;100.00
38058;BME280;23862;51.972;4.618;2022-08-21T13:49:30;148908.06;;;24.63;100.00